Weather History for Salida, CO

Change the Weather History Date:

Monday, September 1, 2014

  Actual Average (KGUC) Record (KGUC)
Temperature  
Mean Temperature 64 °F -  
Max Temperature 80 °F 71 °F 80 °F (1996)
Min Temperature 48 °F 39 °F 30 °F (2005)
Degree Days  
Heating Degree Days 1    
Growing Degree Days 14 (Base 50)    
Moisture  
Dew Point 34 °F    
Average Humidity 38    
Maximum Humidity 78    
Minimum Humidity 13    
Precipitation  
Precipitation 0.00 in - - ()
Sea Level Pressure  
Sea Level Pressure 30.24 in    
Wind  
Wind Speed 8 mph (WSW)    
Max Wind Speed 25 mph    
Max Gust Speed 38 mph    
Visibility 10 miles    
Events      
Averages and records for this station are not official NWS values.
T = Trace of Precipitation, MM = Missing Value Source: NWS Daily Summary

Daily Weather History Graph

Daily Weather History Graph

Search for Another Location

Airport:

Trip Planner

Search our weather history database for the weather conditions in past years. The results will help you decide how hot, cold, wet, or windy it might be!

Date:

Astronomy

Sep. 01, 2014 Rise Set
Actual Time 6:33 AM MDT 7:34 PM MDT
Civil Twilight 6:06 AM MDT 8:01 PM MDT
Nautical Twilight 5:34 AM MDT 8:33 PM MDT
Astronomical Twilight 5:00 AM MDT 9:06 PM MDT
Moon 1:17 PM MDT (9/1) 11:42 PM MDT (9/1)
Length of Visible Light 13h 54m
Length of Day
13h 00m
Waxing Crescent, 43% of the Moon is Illuminated
Sep 1
Waxing Crescent
Sep 2
First Quarter
Sep 8
Full
Sep 15
Last Quarter
Sep 24
New

Hourly Weather History & Observations

Time (MDT) Temp. Dew Point Humidity Pressure Visibility Wind Dir Wind Speed Gust Speed Precip Events Conditions
12:15 AM 60.3 °F 33.1 °F 36% 30.19 in 10.0 mi SW 5.8 mph - N/A   Clear
12:35 AM 57.7 °F 34.9 °F 42% 30.19 in 10.0 mi North 3.5 mph - N/A   Clear
12:55 AM 55.4 °F 35.1 °F 46% 30.19 in 10.0 mi Calm Calm - N/A   Clear
1:15 AM 58.8 °F 34.9 °F 41% 30.19 in 10.0 mi SE 6.9 mph - N/A   Clear
1:35 AM 59.0 °F 38.5 °F 47% 30.20 in 10.0 mi SE 3.5 mph - N/A   Clear
1:55 AM 56.1 °F 37.9 °F 51% 30.20 in 10.0 mi Calm Calm - N/A   Clear
2:15 AM 54.9 °F 37.0 °F 51% 30.21 in 10.0 mi NNW 6.9 mph - N/A   Clear
2:35 AM 55.2 °F 36.0 °F 48% 30.21 in 10.0 mi Calm Calm - N/A   Clear
2:55 AM 54.1 °F 37.0 °F 52% 30.22 in 10.0 mi Calm Calm - N/A   Clear
3:15 AM 54.5 °F 41.0 °F 60% 30.23 in 10.0 mi Calm Calm - N/A   Clear
3:35 AM 52.3 °F 41.2 °F 66% 30.23 in 10.0 mi Calm Calm - N/A   Clear
3:55 AM 50.9 °F 41.5 °F 70% 30.22 in 10.0 mi ESE 5.8 mph - N/A   Clear
4:15 AM 51.1 °F 41.2 °F 69% 30.23 in 10.0 mi Calm Calm - N/A   Clear
4:35 AM 51.1 °F 41.9 °F 71% 30.23 in 10.0 mi NNE 3.5 mph - N/A   Clear
4:55 AM 52.2 °F 43.9 °F 73% 30.23 in 10.0 mi SE 6.9 mph - N/A   Clear
5:15 AM 52.9 °F 45.0 °F 74% 30.23 in 10.0 mi SSE 4.6 mph - N/A   Clear
5:35 AM 50.0 °F 40.8 °F 71% 30.24 in 10.0 mi Calm Calm - N/A   Clear
5:55 AM 50.0 °F 43.3 °F 78% 30.24 in 10.0 mi ESE 4.6 mph - N/A   Clear
6:15 AM 49.1 °F 42.4 °F 78% 30.25 in 10.0 mi North 3.5 mph - N/A   Clear
6:35 AM 48.9 °F 41.2 °F 75% 30.26 in 10.0 mi SW 4.6 mph - N/A   Clear
6:55 AM 50.4 °F 42.4 °F 74% 30.26 in 10.0 mi SSW 9.2 mph - N/A   Clear
7:15 AM 50.9 °F 43.0 °F 74% 30.27 in 10.0 mi NW 3.5 mph - N/A   Clear
7:35 AM 52.9 °F 45.1 °F 75% 30.26 in 10.0 mi ESE 8.1 mph - N/A   Clear
7:55 AM 53.4 °F 44.6 °F 72% 30.27 in 10.0 mi South 4.6 mph - N/A   Clear
8:15 AM 54.3 °F 43.2 °F 66% 30.26 in 10.0 mi North 8.1 mph - N/A   Clear
8:35 AM 56.5 °F 43.2 °F 61% 30.26 in 10.0 mi ESE 4.6 mph - N/A   Clear
8:55 AM 57.6 °F 43.3 °F 59% 30.26 in 10.0 mi ESE 6.9 mph - N/A   Clear
9:15 AM 58.8 °F 44.6 °F 59% 30.25 in 10.0 mi ESE 4.6 mph - N/A   Clear
9:35 AM 61.5 °F 45.1 °F 55% 30.26 in 10.0 mi Calm Calm - N/A   Clear
9:55 AM 66.7 °F 40.6 °F 39% 30.25 in 10.0 mi South 9.2 mph - N/A   Clear
10:15 AM 72.1 °F 30.0 °F 21% 30.25 in 10.0 mi WSW 16.1 mph 21.9 mph N/A   Clear
10:35 AM 73.2 °F 29.5 °F 20% 30.25 in 10.0 mi WSW 11.5 mph 26.5 mph N/A   Clear
10:55 AM 73.9 °F 29.3 °F 19% 30.25 in 10.0 mi WSW 17.3 mph 29.9 mph N/A   Clear
11:15 AM 75.2 °F 29.8 °F 19% 30.25 in 10.0 mi SW 18.4 mph 29.9 mph N/A   Clear
11:35 AM 76.1 °F 29.8 °F 18% 30.25 in 10.0 mi WSW 19.6 mph 29.9 mph N/A   Clear
11:55 AM 75.7 °F 29.7 °F 18% 30.24 in 10.0 mi WSW 24.2 mph 38.0 mph N/A   Clear
12:15 PM 76.3 °F 29.3 °F 18% 30.24 in 10.0 mi WSW 18.4 mph 34.5 mph N/A   Clear
12:35 PM 77.0 °F 28.8 °F 17% 30.24 in 10.0 mi WSW 19.6 mph 33.4 mph N/A   Clear
12:55 PM 76.1 °F 28.4 °F 17% 30.23 in 10.0 mi WSW 17.3 mph 34.5 mph N/A   Clear
1:15 PM 78.8 °F 29.7 °F 17% 30.23 in 10.0 mi WSW 17.3 mph 28.8 mph N/A   Clear
1:35 PM 78.6 °F 28.4 °F 16% 30.23 in 10.0 mi WSW 25.3 mph 33.4 mph N/A   Clear
1:55 PM 77.7 °F 26.6 °F 15% 30.22 in 10.0 mi SW 25.3 mph 32.2 mph N/A   Clear
2:15 PM 78.3 °F 26.2 °F 15% 30.22 in 10.0 mi West 18.4 mph 34.5 mph N/A   Clear
2:35 PM 79.0 °F 27.0 °F 15% 30.20 in 10.0 mi SW 11.5 mph 21.9 mph N/A   Clear
2:55 PM 80.1 °F 25.2 °F 13% 30.19 in 10.0 mi West 20.7 mph 33.4 mph N/A   Clear
3:15 PM 80.6 °F 25.0 °F 13% 30.19 in 10.0 mi West 19.6 mph 28.8 mph N/A   Clear
3:35 PM 80.6 °F 26.1 °F 14% 30.19 in 10.0 mi WSW 20.7 mph 29.9 mph N/A   Clear
3:55 PM 80.6 °F 25.5 °F 13% 30.19 in 10.0 mi WSW 23.0 mph 28.8 mph N/A   Clear
4:15 PM 79.7 °F 24.8 °F 13% 30.20 in 10.0 mi West 19.6 mph 33.4 mph N/A   Clear
4:35 PM 79.7 °F 25.2 °F 13% 30.20 in 10.0 mi WSW 13.8 mph 28.8 mph N/A   Clear
4:55 PM 79.7 °F 25.5 °F 14% 30.19 in 10.0 mi WSW 16.1 mph 32.2 mph N/A   Clear
5:15 PM 79.7 °F 25.3 °F 14% 30.20 in 10.0 mi WSW 21.9 mph 28.8 mph N/A   Clear
5:35 PM 79.0 °F 26.1 °F 14% 30.20 in 10.0 mi West 23.0 mph 28.8 mph N/A   Clear
5:55 PM 78.6 °F 27.7 °F 15% 30.21 in 10.0 mi West 20.7 mph 27.6 mph N/A   Clear
6:15 PM 78.1 °F 26.6 °F 15% 30.21 in 10.0 mi WSW 17.3 mph 25.3 mph N/A   Clear
6:35 PM 77.0 °F 25.3 °F 15% 30.22 in 10.0 mi West 20.7 mph 26.5 mph N/A   Clear
6:55 PM 75.6 °F 26.1 °F 16% 30.23 in 10.0 mi West 10.4 mph 20.7 mph N/A   Clear
7:15 PM 73.4 °F 29.1 °F 19% 30.24 in 10.0 mi West 6.9 mph - N/A   Clear
7:35 PM 71.6 °F 27.7 °F 20% 30.25 in 10.0 mi West 5.8 mph - N/A   Clear
7:55 PM 69.6 °F 29.3 °F 22% 30.25 in 10.0 mi Calm Calm - N/A   Clear
8:15 PM 66.0 °F 30.7 °F 27% 30.27 in 10.0 mi West 5.8 mph - N/A   Clear
8:35 PM 66.6 °F 30.4 °F 26% 30.28 in 10.0 mi WSW 6.9 mph - N/A   Clear
8:55 PM 64.6 °F 31.3 °F 29% 30.29 in 10.0 mi WSW 6.9 mph - N/A   Clear
9:15 PM 61.9 °F 32.0 °F 33% 30.30 in 10.0 mi West 5.8 mph - N/A   Clear
9:35 PM 62.1 °F 32.0 °F 32% 30.31 in 10.0 mi West 4.6 mph - N/A   Clear
9:55 PM 59.7 °F 32.9 °F 36% 30.32 in 10.0 mi WSW 5.8 mph - N/A   Clear
10:15 PM 59.4 °F 32.4 °F 36% 30.32 in 10.0 mi WSW 8.1 mph - N/A   Clear
10:35 PM 60.3 °F 30.9 °F 33% 30.32 in 10.0 mi Calm Calm - N/A   Clear
10:55 PM 57.4 °F 33.1 °F 40% 30.33 in 10.0 mi WSW 8.1 mph - N/A   Clear
11:15 PM 56.5 °F 33.4 °F 42% 30.33 in 10.0 mi WSW 9.2 mph - N/A   Clear
11:35 PM 54.7 °F 33.8 °F 45% 30.34 in 10.0 mi West 8.1 mph - N/A   Clear
11:55 PM 54.1 °F 33.6 °F 46% 30.34 in 10.0 mi WSW 5.8 mph - N/A   Clear